Grenadines III — CRA5628 — position and weather

sailwx.info

Track history (hours):
 
Tides and Currents Weather Stations Pressure Air Temp Water Temp Dewpoint Dewpoint Depression Visibility Wind Speed Wind Dir Waves Ship Positions

Grenadines III

Last reported at 2015-Sep-01 01:33 UTC. Time now 2015-Sep-03 21:28 UTC.
Position N 43°09' E 006°42'.

Type: Pilot. MMSI: 225910870.

Date/timePositionNaut miles runAvg speedWind from/ knotsBaromVisibWave heightAir tempDewpointWater temp
2015-Sep-01 01:33N 43°09' E 006°42'1211.6
2015-Sep-01 00:33N 43°19' E 006°50'1111.3
2015-Aug-31 23:33N 43°28' E 006°58'3 3.1
2015-Aug-31 22:33N 43°30' E 007°02'1111.4
2015-Aug-31 21:33N 43°36' E 007°15'1110.9
2015-Aug-31 20:32N 43°44' E 007°26'3 2.2
2015-Aug-31 19:17N 43°42' E 007°24'1318.0
2015-Aug-31 18:33N 43°33' E 007°10'1716.7
2015-Aug-31 17:33N 43°24' E 006°51'8 4.1
2015-Aug-31 15:33N 43°19' E 006°42'6 2.6
2015-Aug-31 13:06N 43°13' E 006°40'0 0.0
2015-Aug-31 12:15N 43°13' E 006°40'0 0.0
2015-Aug-31 11:27N 43°13' E 006°40'0 0.0
2015-Aug-31 10:21N 43°13' E 006°40'4 5.1
2015-Aug-31 09:33N 43°17' E 006°43'4 3.6
2015-Aug-31 08:32N 43°16' E 006°38'0 0.0
2015-Aug-31 07:32N 43°16' E 006°38'0 0.0
2015-Aug-31 06:32N 43°16' E 006°38'0 0.0
2015-Aug-31 05:32N 43°16' E 006°38'0 0.0
2015-Aug-31 04:26N 43°16' E 006°38'0 0.0
2015-Aug-31 03:32N 43°16' E 006°38'0 0.0
2015-Aug-31 01:20N 43°16' E 006°38'0 0.0
2015-Aug-31 00:32N 43°16' E 006°38'0 0.0
2015-Aug-30 23:23N 43°16' E 006°38'0 0.0
2015-Aug-30 22:32N 43°16' E 006°38'0 0.0
2015-Aug-30 21:26N 43°16' E 006°38'0 0.0
2015-Aug-30 20:26N 43°16' E 006°38'0 0.0
2015-Aug-30 19:26N 43°16' E 006°38'0 0.0
2015-Aug-30 18:20N 43°16' E 006°38'0 0.0
2015-Aug-30 17:20N 43°16' E 006°38'0 0.1
2015-Aug-30 16:33N 43°16' E 006°38'3 3.2
2015-Aug-30 15:30N 43°14' E 006°40'0 0.0
2015-Aug-30 14:33N 43°14' E 006°40'0 0.0
2015-Aug-30 13:30N 43°14' E 006°40'0 0.0
2015-Aug-30 11:30N 43°14' E 006°40'0 0.0
2015-Aug-30 10:12N 43°14' E 006°40'0 0.0
2015-Aug-30 09:30N 43°14' E 006°40'3 3.6
2015-Aug-30 08:33N 43°16' E 006°43'4 3.9
2015-Aug-30 07:31N 43°16' E 006°37'0 0.0
2015-Aug-30 06:13N 43°16' E 006°37'0 0.0
2015-Aug-30 05:22N 43°16' E 006°37'0 0.0
2015-Aug-30 04:31N 43°16' E 006°37'0 0.0
2015-Aug-30 03:31N 43°16' E 006°37'0 0.0
2015-Aug-30 02:19N 43°16' E 006°37'0 0.0
2015-Aug-30 01:28N 43°16' E 006°37'0 0.0
2015-Aug-30 00:31N 43°16' E 006°37'0 0.0
2015-Aug-29 23:31N 43°16' E 006°37'0 0.0
2015-Aug-29 22:31N 43°16' E 006°37'0 0.0
2015-Aug-29 21:31N 43°16' E 006°37'0 0.0
2015-Aug-29 20:28N 43°16' E 006°37'4 4.6
2015-Aug-29 19:34N 43°15' E 006°43'3 2.3
2015-Aug-29 18:24N 43°14' E 006°40'2 0.8
2015-Aug-29 16:33N 43°15' E 006°42'1817.6
2015-Aug-29 15:33N 43°26' E 007°00'1817.9
2015-Aug-29 14:32N 43°38' E 007°19'2 0.1
2015-Aug-28 11:33N 43°38' E 007°17'1010.3
2015-Aug-28 10:34N 43°31' E 007°06'7 6.8
2015-Aug-28 09:34N 43°31' E 006°57'0 0.0
2015-Aug-28 08:25N 43°31' E 006°57'0 0.0
2015-Aug-28 07:19N 43°31' E 006°57'0 0.0
2015-Aug-28 06:16N 43°31' E 006°57'0 0.0
2015-Aug-28 05:25N 43°31' E 006°57'0 0.0
2015-Aug-28 04:16N 43°31' E 006°57'0 0.0
2015-Aug-28 03:10N 43°31' E 006°57'0 0.0
2015-Aug-28 02:28N 43°31' E 006°57'0 0.0
2015-Aug-28 01:22N 43°31' E 006°57'0 0.0
2015-Aug-28 00:28N 43°31' E 006°57'0 0.0
2015-Aug-27 22:13N 43°31' E 006°57'0 0.0
2015-Aug-27 21:16N 43°31' E 006°57'0 0.0
2015-Aug-27 18:28N 43°31' E 006°57'0 0.0
2015-Aug-27 17:28N 43°31' E 006°57'0 0.0
2015-Aug-27 16:22N 43°31' E 006°57'0 0.0
2015-Aug-27 15:16N 43°31' E 006°57'0 0.0
2015-Aug-27 14:31N 43°31' E 006°57'0 0.0
2015-Aug-27 12:04N 43°31' E 006°57'0 0.0
2015-Aug-27 11:25N 43°31' E 006°57'0 0.0
2015-Aug-27 10:22N 43°31' E 006°57'0 0.0
2015-Aug-27 09:31N 43°31' E 006°57'0 0.0
2015-Aug-27 08:28N 43°31' E 006°57'0 0.0
2015-Aug-27 07:31N 43°31' E 006°57'0 0.0
2015-Aug-27 05:28N 43°31' E 006°57'0 0.0
2015-Aug-27 04:04N 43°31' E 006°57'0 0.0
2015-Aug-27 03:22N 43°31' E 006°57'0 0.0
2015-Aug-27 02:28N 43°31' E 006°57'0 0.0
2015-Aug-27 01:28N 43°31' E 006°57'0 0.0
2015-Aug-27 00:31N 43°31' E 006°57'0 0.0
2015-Aug-26 23:28N 43°31' E 006°57'0 0.0
2015-Aug-26 22:28N 43°31' E 006°57'0 0.0
2015-Aug-26 21:28N 43°31' E 006°57'0 0.0
2015-Aug-26 20:22N 43°31' E 006°57'0 0.0
2015-Aug-26 19:25N 43°31' E 006°57'0 0.0
2015-Aug-26 18:28N 43°31' E 006°57'0 0.0
2015-Aug-26 17:28N 43°31' E 006°57'0 0.0
2015-Aug-26 16:28N 43°31' E 006°57'0 0.0
2015-Aug-26 15:28N 43°31' E 006°57'0 0.0
2015-Aug-26 14:28N 43°31' E 006°57'0 0.0
2015-Aug-26 13:22N 43°31' E 006°57'0 0.0
2015-Aug-26 12:31N 43°31' E 006°57'0 0.0
2015-Aug-26 11:28N 43°31' E 006°57'0 0.0
2015-Aug-26 10:28N 43°31' E 006°57'0 0.0
2015-Aug-26 09:28N 43°31' E 006°57'0 0.0
2015-Aug-26 08:28N 43°31' E 006°57'0 0.0
2015-Aug-26 07:28N 43°31' E 006°57'0 0.0
2015-Aug-26 06:28N 43°31' E 006°57'0 0.0
2015-Aug-26 05:28N 43°31' E 006°57'0 0.0
2015-Aug-26 04:28N 43°31' E 006°57'0 0.0
2015-Aug-26 03:31N 43°31' E 006°57'0 0.0
2015-Aug-26 02:31N 43°31' E 006°57'0 0.0
2015-Aug-26 01:28N 43°31' E 006°57'0 0.0
2015-Aug-26 00:28N 43°31' E 006°57'0 0.0
2015-Aug-25 23:28N 43°31' E 006°57'0 0.0
2015-Aug-25 22:10N 43°31' E 006°57'0 0.0
2015-Aug-25 21:28N 43°31' E 006°57'0 0.0
2015-Aug-25 20:28N 43°31' E 006°57'0 0.0
2015-Aug-25 19:28N 43°31' E 006°57'0 0.0
2015-Aug-25 18:28N 43°31' E 006°57'0 0.0
2015-Aug-25 17:28N 43°31' E 006°57'0 0.0
2015-Aug-25 16:25N 43°31' E 006°57'0 0.0
2015-Aug-25 15:28N 43°31' E 006°57'0 0.0
2015-Aug-25 14:31N 43°31' E 006°57'0 0.0
2015-Aug-25 13:28N 43°31' E 006°57'0 0.0
2015-Aug-25 06:04N 43°31' E 006°57'0 0.0
2015-Aug-25 04:22N 43°31' E 006°57'0 0.0
2015-Aug-25 00:22N 43°31' E 006°57'0 0.0
2015-Aug-24 22:28N 43°31' E 006°57'0 0.0
2015-Aug-24 19:22N 43°31' E 006°57'0 0.0
2015-Aug-24 18:28N 43°31' E 006°57'0 0.0
2015-Aug-24 15:25N 43°31' E 006°57'0 0.0
2015-Aug-24 14:16N 43°31' E 006°57'0 0.0
2015-Aug-24 13:28N 43°31' E 006°57'0 0.0
2015-Aug-24 12:22N 43°31' E 006°57'0 0.0
2015-Aug-24 11:04N 43°31' E 006°57'0 0.0
2015-Aug-24 10:33N 43°31' E 006°57'1 0.8
2015-Aug-24 09:31N 43°31' E 006°57'4 0.1
2015-Aug-23 06:33N 43°30' E 007°02'5 3.9
2015-Aug-23 05:22N 43°33' E 007°07'0 0.0
2015-Aug-23 04:28N 43°33' E 007°07'0 0.0
2015-Aug-23 03:28N 43°33' E 007°07'0 0.0
2015-Aug-23 02:28N 43°33' E 007°07'0 0.0
2015-Aug-23 01:22N 43°33' E 007°07'0 0.0
2015-Aug-23 00:28N 43°33' E 007°07'0 0.0
2015-Aug-22 23:28N 43°33' E 007°07'0 0.0
2015-Aug-22 22:22N 43°33' E 007°07'0 0.0
2015-Aug-22 21:22N 43°33' E 007°07'0 0.0
2015-Aug-22 20:22N 43°33' E 007°07'0 0.0
2015-Aug-22 19:28N 43°33' E 007°07'0 0.0
2015-Aug-22 18:33N 43°33' E 007°07'10 8.9
2015-Aug-22 17:27N 43°39' E 007°18'5 1.0
2015-Aug-22 12:25N 43°35' E 007°13'  
Track history (hours):
 
Tides and Currents Weather Stations Pressure Air Temp Water Temp Dewpoint Dewpoint Depression Visibility Wind Speed Wind Dir Waves Ship Positions

Grenadines III

Last reported at 2015-Sep-01 01:33 UTC. Time now 2015-Sep-03 21:28 UTC.
Position N 43°09' E 006°42'.

Type: Pilot. MMSI: 225910870.

Date/timePositionNaut miles runAvg speedWind from/ knotsBaromVisibWave heightAir tempDewpointWater temp
2015-Sep-01 01:33N 43°09' E 006°42'1211.6
2015-Sep-01 00:33N 43°19' E 006°50'1111.3
2015-Aug-31 23:33N 43°28' E 006°58'3 3.1
2015-Aug-31 22:33N 43°30' E 007°02'1111.4
2015-Aug-31 21:33N 43°36' E 007°15'1110.9
2015-Aug-31 20:32N 43°44' E 007°26'3 2.2
2015-Aug-31 19:17N 43°42' E 007°24'1318.0
2015-Aug-31 18:33N 43°33' E 007°10'1716.7
2015-Aug-31 17:33N 43°24' E 006°51'8 4.1
2015-Aug-31 15:33N 43°19' E 006°42'6 2.6
2015-Aug-31 13:06N 43°13' E 006°40'0 0.0
2015-Aug-31 12:15N 43°13' E 006°40'0 0.0
2015-Aug-31 11:27N 43°13' E 006°40'0 0.0
2015-Aug-31 10:21N 43°13' E 006°40'4 5.1
2015-Aug-31 09:33N 43°17' E 006°43'4 3.6
2015-Aug-31 08:32N 43°16' E 006°38'0 0.0
2015-Aug-31 07:32N 43°16' E 006°38'0 0.0
2015-Aug-31 06:32N 43°16' E 006°38'0 0.0
2015-Aug-31 05:32N 43°16' E 006°38'0 0.0
2015-Aug-31 04:26N 43°16' E 006°38'0 0.0
2015-Aug-31 03:32N 43°16' E 006°38'0 0.0
2015-Aug-31 01:20N 43°16' E 006°38'0 0.0
2015-Aug-31 00:32N 43°16' E 006°38'0 0.0
2015-Aug-30 23:23N 43°16' E 006°38'0 0.0
2015-Aug-30 22:32N 43°16' E 006°38'0 0.0
2015-Aug-30 21:26N 43°16' E 006°38'0 0.0
2015-Aug-30 20:26N 43°16' E 006°38'0 0.0
2015-Aug-30 19:26N 43°16' E 006°38'0 0.0
2015-Aug-30 18:20N 43°16' E 006°38'0 0.0
2015-Aug-30 17:20N 43°16' E 006°38'0 0.1
2015-Aug-30 16:33N 43°16' E 006°38'3 3.2
2015-Aug-30 15:30N 43°14' E 006°40'0 0.0
2015-Aug-30 14:33N 43°14' E 006°40'0 0.0
2015-Aug-30 13:30N 43°14' E 006°40'0 0.0
2015-Aug-30 11:30N 43°14' E 006°40'0 0.0
2015-Aug-30 10:12N 43°14' E 006°40'0 0.0
2015-Aug-30 09:30N 43°14' E 006°40'3 3.6
2015-Aug-30 08:33N 43°16' E 006°43'4 3.9
2015-Aug-30 07:31N 43°16' E 006°37'0 0.0
2015-Aug-30 06:13N 43°16' E 006°37'0 0.0
2015-Aug-30 05:22N 43°16' E 006°37'0 0.0
2015-Aug-30 04:31N 43°16' E 006°37'0 0.0
2015-Aug-30 03:31N 43°16' E 006°37'0 0.0
2015-Aug-30 02:19N 43°16' E 006°37'0 0.0
2015-Aug-30 01:28N 43°16' E 006°37'0 0.0
2015-Aug-30 00:31N 43°16' E 006°37'0 0.0
2015-Aug-29 23:31N 43°16' E 006°37'0 0.0
2015-Aug-29 22:31N 43°16' E 006°37'0 0.0
2015-Aug-29 21:31N 43°16' E 006°37'0 0.0
2015-Aug-29 20:28N 43°16' E 006°37'4 4.6
2015-Aug-29 19:34N 43°15' E 006°43'3 2.3
2015-Aug-29 18:24N 43°14' E 006°40'2 0.8
2015-Aug-29 16:33N 43°15' E 006°42'1817.6
2015-Aug-29 15:33N 43°26' E 007°00'1817.9
2015-Aug-29 14:32N 43°38' E 007°19'2 0.1
2015-Aug-28 11:33N 43°38' E 007°17'1010.3
2015-Aug-28 10:34N 43°31' E 007°06'7 6.8
2015-Aug-28 09:34N 43°31' E 006°57'0 0.0
2015-Aug-28 08:25N 43°31' E 006°57'0 0.0
2015-Aug-28 07:19N 43°31' E 006°57'0 0.0
2015-Aug-28 06:16N 43°31' E 006°57'0 0.0
2015-Aug-28 05:25N 43°31' E 006°57'0 0.0
2015-Aug-28 04:16N 43°31' E 006°57'0 0.0
2015-Aug-28 03:10N 43°31' E 006°57'0 0.0
2015-Aug-28 02:28N 43°31' E 006°57'0 0.0
2015-Aug-28 01:22N 43°31' E 006°57'0 0.0
2015-Aug-28 00:28N 43°31' E 006°57'0 0.0
2015-Aug-27 22:13N 43°31' E 006°57'0 0.0
2015-Aug-27 21:16N 43°31' E 006°57'0 0.0
2015-Aug-27 18:28N 43°31' E 006°57'0 0.0
2015-Aug-27 17:28N 43°31' E 006°57'0 0.0
2015-Aug-27 16:22N 43°31' E 006°57'0 0.0
2015-Aug-27 15:16N 43°31' E 006°57'0 0.0
2015-Aug-27 14:31N 43°31' E 006°57'0 0.0
2015-Aug-27 12:04N 43°31' E 006°57'0 0.0
2015-Aug-27 11:25N 43°31' E 006°57'0 0.0
2015-Aug-27 10:22N 43°31' E 006°57'0 0.0
2015-Aug-27 09:31N 43°31' E 006°57'0 0.0
2015-Aug-27 08:28N 43°31' E 006°57'0 0.0
2015-Aug-27 07:31N 43°31' E 006°57'0 0.0
2015-Aug-27 05:28N 43°31' E 006°57'0 0.0
2015-Aug-27 04:04N 43°31' E 006°57'0 0.0
2015-Aug-27 03:22N 43°31' E 006°57'0 0.0
2015-Aug-27 02:28N 43°31' E 006°57'0 0.0
2015-Aug-27 01:28N 43°31' E 006°57'0 0.0
2015-Aug-27 00:31N 43°31' E 006°57'0 0.0
2015-Aug-26 23:28N 43°31' E 006°57'0 0.0
2015-Aug-26 22:28N 43°31' E 006°57'0 0.0
2015-Aug-26 21:28N 43°31' E 006°57'0 0.0
2015-Aug-26 20:22N 43°31' E 006°57'0 0.0
2015-Aug-26 19:25N 43°31' E 006°57'0 0.0
2015-Aug-26 18:28N 43°31' E 006°57'0 0.0
2015-Aug-26 17:28N 43°31' E 006°57'0 0.0
2015-Aug-26 16:28N 43°31' E 006°57'0 0.0
2015-Aug-26 15:28N 43°31' E 006°57'0 0.0
2015-Aug-26 14:28N 43°31' E 006°57'0 0.0
2015-Aug-26 13:22N 43°31' E 006°57'0 0.0
2015-Aug-26 12:31N 43°31' E 006°57'0 0.0
2015-Aug-26 11:28N 43°31' E 006°57'0 0.0
2015-Aug-26 10:28N 43°31' E 006°57'0 0.0
2015-Aug-26 09:28N 43°31' E 006°57'0 0.0
2015-Aug-26 08:28N 43°31' E 006°57'0 0.0
2015-Aug-26 07:28N 43°31' E 006°57'0 0.0
2015-Aug-26 06:28N 43°31' E 006°57'0 0.0
2015-Aug-26 05:28N 43°31' E 006°57'0 0.0
2015-Aug-26 04:28N 43°31' E 006°57'0 0.0
2015-Aug-26 03:31N 43°31' E 006°57'0 0.0
2015-Aug-26 02:31N 43°31' E 006°57'0 0.0
2015-Aug-26 01:28N 43°31' E 006°57'0 0.0
2015-Aug-26 00:28N 43°31' E 006°57'0 0.0
2015-Aug-25 23:28N 43°31' E 006°57'0 0.0
2015-Aug-25 22:10N 43°31' E 006°57'0 0.0
2015-Aug-25 21:28N 43°31' E 006°57'0 0.0
2015-Aug-25 20:28N 43°31' E 006°57'0 0.0
2015-Aug-25 19:28N 43°31' E 006°57'0 0.0
2015-Aug-25 18:28N 43°31' E 006°57'0 0.0
2015-Aug-25 17:28N 43°31' E 006°57'0 0.0
2015-Aug-25 16:25N 43°31' E 006°57'0 0.0
2015-Aug-25 15:28N 43°31' E 006°57'0 0.0
2015-Aug-25 14:31N 43°31' E 006°57'0 0.0
2015-Aug-25 13:28N 43°31' E 006°57'0 0.0
2015-Aug-25 06:04N 43°31' E 006°57'0 0.0
2015-Aug-25 04:22N 43°31' E 006°57'0 0.0
2015-Aug-25 00:22N 43°31' E 006°57'0 0.0
2015-Aug-24 22:28N 43°31' E 006°57'0 0.0
2015-Aug-24 19:22N 43°31' E 006°57'0 0.0
2015-Aug-24 18:28N 43°31' E 006°57'0 0.0
2015-Aug-24 15:25N 43°31' E 006°57'0 0.0
2015-Aug-24 14:16N 43°31' E 006°57'0 0.0
2015-Aug-24 13:28N 43°31' E 006°57'0 0.0
2015-Aug-24 12:22N 43°31' E 006°57'0 0.0
2015-Aug-24 11:04N 43°31' E 006°57'0 0.0
2015-Aug-24 10:33N 43°31' E 006°57'1 0.8
2015-Aug-24 09:31N 43°31' E 006°57'4 0.1
2015-Aug-23 06:33N 43°30' E 007°02'5 3.9
2015-Aug-23 05:22N 43°33' E 007°07'0 0.0
2015-Aug-23 04:28N 43°33' E 007°07'0 0.0
2015-Aug-23 03:28N 43°33' E 007°07'0 0.0
2015-Aug-23 02:28N 43°33' E 007°07'0 0.0
2015-Aug-23 01:22N 43°33' E 007°07'0 0.0
2015-Aug-23 00:28N 43°33' E 007°07'0 0.0
2015-Aug-22 23:28N 43°33' E 007°07'0 0.0
2015-Aug-22 22:22N 43°33' E 007°07'0 0.0
2015-Aug-22 21:22N 43°33' E 007°07'0 0.0
2015-Aug-22 20:22N 43°33' E 007°07'0 0.0
2015-Aug-22 19:28N 43°33' E 007°07'0 0.0
2015-Aug-22 18:33N 43°33' E 007°07'10 8.9
2015-Aug-22 17:27N 43°39' E 007°18'5 1.0
2015-Aug-22 12:25N 43°35' E 007°13'  

Dump ship's entire track history